createdAt,value
2016-12-01T00:00:02.535Z,87.69
2016-12-01T00:05:02.885Z,87.75
2016-12-01T00:10:02.236Z,87.85
2016-12-01T00:15:02.575Z,87.85
2016-12-01T00:20:03.010Z,87.78
2016-12-01T00:25:02.427Z,87.83
2016-12-01T00:30:02.761Z,87.92
2016-12-01T00:35:02.087Z,87.86
2016-12-01T00:40:02.482Z,87.78
2016-12-01T00:45:02.833Z,87.8
2016-12-01T00:50:02.188Z,87.75
2016-12-01T00:55:02.548Z,87.72
2016-12-01T01:00:02.903Z,87.75
2016-12-01T01:05:02.254Z,87.63
2016-12-01T01:10:02.609Z,87.59
2016-12-01T01:15:02.919Z,87.48
2016-12-01T01:20:02.347Z,87.41
2016-12-01T01:25:02.740Z,87.37
2016-12-01T01:30:02.091Z,87.27
2016-12-01T01:35:02.492Z,87.14
2016-12-01T01:40:02.865Z,87.07
2016-12-01T01:45:02.214Z,86.97
2016-12-01T01:50:02.594Z,87.01
2016-12-01T01:55:02.937Z,86.86
2016-12-01T02:00:02.292Z,86.72
2016-12-01T02:05:02.688Z,86.58
2016-12-01T02:10:03.096Z,86.54
2016-12-01T02:15:02.474Z,86.56
2016-12-01T02:20:02.946Z,86.69
2016-12-01T02:25:02.302Z,86.84
2016-12-01T02:30:02.668Z,86.84
2016-12-01T02:35:02.990Z,87
2016-12-01T02:40:02.384Z,87.12
2016-12-01T02:45:02.712Z,87.2
2016-12-01T02:50:02.061Z,87.41
2016-12-01T02:55:02.433Z,87.47
2016-12-01T03:00:02.781Z,87.59
2016-12-01T03:05:02.132Z,87.74
2016-12-01T03:10:02.568Z,87.86
2016-12-01T03:15:02.891Z,87.78
2016-12-01T03:20:02.299Z,87.77
2016-12-01T03:25:02.659Z,87.71
2016-12-01T03:30:03.021Z,87.65
2016-12-01T03:35:02.361Z,87.75
2016-12-01T03:40:02.751Z,87.7
2016-12-01T03:45:02.131Z,87.67
2016-12-01T03:50:02.494Z,87.57
2016-12-01T03:55:02.834Z,87.52
2016-12-01T04:00:02.204Z,87.45
2016-12-01T04:05:02.562Z,87.25
2016-12-01T04:10:02.906Z,87.2
2016-12-01T04:15:02.276Z,87.14
2016-12-01T04:20:02.689Z,87.15
2016-12-01T04:25:03.064Z,87.22
2016-12-01T04:30:02.404Z,87.12
2016-12-01T04:35:02.763Z,87.19
2016-12-01T04:40:02.106Z,87.28
2016-12-01T04:45:02.557Z,87.38
2016-12-01T04:50:02.951Z,87.3
2016-12-01T04:55:02.387Z,87.38
2016-12-01T05:00:02.749Z,87.47
2016-12-01T05:05:02.089Z,87.46
2016-12-01T05:10:02.482Z,87.43
2016-12-01T05:15:02.841Z,87.46
2016-12-01T05:20:02.269Z,87.52
2016-12-01T05:25:02.624Z,87.52
2016-12-01T05:35:02.137Z,87.43
2016-12-01T05:40:02.960Z,87.45
2016-12-01T05:45:02.293Z,87.4
2016-12-01T05:50:02.667Z,87.6
2016-12-01T05:55:02.034Z,87.6
2016-12-01T06:00:02.397Z,87.84
2016-12-01T06:05:02.769Z,87.81
2016-12-01T06:10:02.197Z,88.06
2016-12-01T06:15:02.617Z,88.14
2016-12-01T06:20:02.058Z,88.34
2016-12-01T06:25:02.441Z,88.64
2016-12-01T06:30:02.792Z,88.45
2016-12-01T06:35:02.129Z,88.69
2016-12-01T06:40:02.563Z,88.86
2016-12-01T06:45:02.932Z,88.76
2016-12-01T06:50:02.295Z,88.89
2016-12-01T06:55:02.641Z,89.09
2016-12-01T07:00:02.986Z,89.36
2016-12-01T07:05:02.429Z,89.62
2016-12-01T07:10:02.810Z,89.39
2016-12-01T07:15:02.104Z,89.46
2016-12-01T07:20:02.630Z,89.5
2016-12-01T07:25:03.003Z,89.5
2016-12-01T07:30:02.344Z,89.39
2016-12-01T07:35:02.695Z,89.52
2016-12-01T07:40:02.001Z,89.37
2016-12-01T07:45:02.389Z,89.38
2016-12-01T07:50:02.751Z,89.52
2016-12-01T07:55:02.032Z,89.46
2016-12-01T08:00:02.408Z,89.56
2016-12-01T08:05:02.742Z,89.84
2016-12-01T08:10:02.101Z,89.78
2016-12-01T08:15:02.469Z,90.02
2016-12-01T08:20:02.942Z,89.93
2016-12-01T08:25:02.272Z,89.95
2016-12-01T08:30:02.639Z,90.08
2016-12-01T08:35:02.961Z,90.37
2016-12-01T08:40:02.314Z,90.17
2016-12-01T08:45:02.650Z,90.04
2016-12-01T08:50:03.022Z,89.99
2016-12-01T08:55:02.347Z,89.89
2016-12-01T09:00:02.724Z,90.34
